createdAt,value
2019-01-10T00:01:59.144Z,5.25
2019-01-10T00:04:28.634Z,5.08
2019-01-10T00:06:58.127Z,5.03
2019-01-10T00:09:27.603Z,4.74
2019-01-10T00:11:57.073Z,4.24
2019-01-10T00:14:26.561Z,4.43
2019-01-10T00:16:56.035Z,4.59
2019-01-10T00:19:25.540Z,4.43
2019-01-10T00:21:55.038Z,4.39
2019-01-10T00:24:24.541Z,4.31
2019-01-10T00:26:54.035Z,4.53
2019-01-10T00:29:23.520Z,4.50
2019-01-10T00:31:53.003Z,4.48
2019-01-10T00:34:22.488Z,4.68
2019-01-10T00:36:51.974Z,4.85
2019-01-10T00:39:21.454Z,4.44
2019-01-10T00:41:50.938Z,4.64
2019-01-10T00:44:20.723Z,4.53
2019-01-10T00:46:50.197Z,4.75
2019-01-10T00:49:19.674Z,4.68
2019-01-10T00:51:49.172Z,4.86
2019-01-10T00:54:18.670Z,4.98
2019-01-10T00:56:48.152Z,5.06
2019-01-10T00:59:17.645Z,4.97
2019-01-10T01:01:47.167Z,4.81
2019-01-10T01:04:16.650Z,4.84
2019-01-10T01:06:46.138Z,4.94
2019-01-10T01:09:15.615Z,4.92
2019-01-10T01:11:45.094Z,5.07
2019-01-10T01:14:14.606Z,5.03
2019-01-10T01:16:44.074Z,5.08
2019-01-10T01:19:14.537Z,5.09
2019-01-10T01:21:44.027Z,5.18
2019-01-10T01:24:14.181Z,5.29
2019-01-10T01:26:44.773Z,5.37
2019-01-10T01:29:14.242Z,5.41
2019-01-10T01:31:43.717Z,5.50
2019-01-10T01:34:13.265Z,5.58
2019-01-10T01:36:42.746Z,5.57
2019-01-10T01:39:12.213Z,5.52
2019-01-10T01:41:41.702Z,5.56
2019-01-10T01:44:11.188Z,5.61
2019-01-10T01:46:40.753Z,5.61
2019-01-10T01:49:10.307Z,5.64
2019-01-10T01:51:39.862Z,5.62
2019-01-10T01:54:09.439Z,5.65
2019-01-10T01:56:38.920Z,5.70
2019-01-10T01:59:08.392Z,5.69
2019-01-10T02:01:37.886Z,5.72
2019-01-10T02:04:07.359Z,5.70
2019-01-10T02:06:36.932Z,5.70
2019-01-10T02:09:07.456Z,5.68
2019-01-10T02:11:37.029Z,5.71
2019-01-10T02:14:06.508Z,5.71
2019-01-10T02:16:35.991Z,5.62
2019-01-10T02:19:05.466Z,5.62
2019-01-10T02:21:36.016Z,5.55
2019-01-10T02:24:05.586Z,5.60
2019-01-10T02:26:35.100Z,5.51
2019-01-10T02:29:04.609Z,5.56
2019-01-10T02:31:34.085Z,5.53
2019-01-10T02:34:03.565Z,5.48
2019-01-10T02:36:33.057Z,5.46
2019-01-10T02:39:02.541Z,5.41
2019-01-10T02:41:33.008Z,5.38
2019-01-10T02:44:02.506Z,5.33
2019-01-10T02:46:32.015Z,5.28
2019-01-10T02:49:01.492Z,5.23
2019-01-10T02:51:30.975Z,5.20
2019-01-10T02:54:00.459Z,5.19
2019-01-10T02:56:29.936Z,5.19
2019-01-10T02:58:59.415Z,5.20
2019-01-10T03:01:28.916Z,5.16
2019-01-10T03:03:58.388Z,5.10
2019-01-10T03:06:27.870Z,5.12
2019-01-10T03:08:57.336Z,5.18
2019-01-10T03:11:26.819Z,5.18
2019-01-10T03:13:56.295Z,5.20
2019-01-10T03:16:25.782Z,5.17
2019-01-10T03:18:55.250Z,5.10
2019-01-10T03:21:24.725Z,5.11
2019-01-10T03:23:54.203Z,5.19
2019-01-10T03:26:23.694Z,5.25
2019-01-10T03:28:53.169Z,5.30
2019-01-10T03:31:22.650Z,5.30
2019-01-10T03:33:52.202Z,5.32
2019-01-10T03:36:21.684Z,5.29
2019-01-10T03:38:51.151Z,5.24
2019-01-10T03:41:20.635Z,5.27
2019-01-10T03:43:50.115Z,5.30
2019-01-10T03:46:19.595Z,5.30
2019-01-10T03:48:49.082Z,5.29
2019-01-10T03:51:18.551Z,5.30
2019-01-10T03:53:48.039Z,5.32
2019-01-10T03:56:17.527Z,5.30
2019-01-10T03:58:47.020Z,5.27
2019-01-10T04:01:16.491Z,5.26
2019-01-10T04:03:45.973Z,5.24
2019-01-10T04:06:15.449Z,5.26
2019-01-10T04:08:44.954Z,5.28
2019-01-10T04:11:14.430Z,5.27
2019-01-10T04:13:43.928Z,5.22
2019-01-10T04:16:13.409Z,5.20
2019-01-10T04:18:42.899Z,5.21
2019-01-10T04:21:17.561Z,5.23
2019-01-10T04:23:43.562Z,5.25
2019-01-10T04:26:13.028Z,5.20
2019-01-10T04:28:42.533Z,5.15
2019-01-10T04:31:12.002Z,5.18
2019-01-10T04:33:41.479Z,5.22
2019-01-10T04:36:10.964Z,5.18
2019-01-10T04:38:40.483Z,5.17
2019-01-10T04:41:10.026Z,5.16
2019-01-10T04:43:39.515Z,5.08
2019-01-10T04:46:08.990Z,5.09
2019-01-10T04:48:38.473Z,5.13
2019-01-10T04:51:07.947Z,5.12
2019-01-10T04:53:37.445Z,5.11
2019-01-10T04:56:06.919Z,5.12
2019-01-10T04:58:36.401Z,5.13
2019-01-10T05:01:05.878Z,5.19
2019-01-10T05:03:35.434Z,5.22
2019-01-10T05:06:05.225Z,5.20
2019-01-10T05:08:34.871Z,5.23
2019-01-10T05:11:04.360Z,5.15
2019-01-10T05:13:33.838Z,5.18
2019-01-10T05:16:03.313Z,5.20
2019-01-10T05:18:32.814Z,5.10
2019-01-10T05:21:02.302Z,5.09
2019-01-10T05:23:31.773Z,5.14
2019-01-10T05:26:01.251Z,5.15
2019-01-10T05:28:30.768Z,5.17
2019-01-10T05:31:00.239Z,5.15
2019-01-10T05:33:29.734Z,5.16
2019-01-10T05:35:59.205Z,5.08
2019-01-10T05:38:28.702Z,5.09
2019-01-10T05:40:58.195Z,5.20
2019-01-10T05:43:27.681Z,5.23
2019-01-10T05:45:57.172Z,5.25
2019-01-10T05:48:26.667Z,5.30
2019-01-10T05:50:56.148Z,5.24
2019-01-10T05:53:25.646Z,5.27
2019-01-10T05:55:55.146Z,5.27
2019-01-10T05:58:24.634Z,5.15
2019-01-10T06:00:54.129Z,5.23
2019-01-10T06:03:23.652Z,5.14
2019-01-10T06:05:53.182Z,5.09
2019-01-10T06:08:22.667Z,5.13
2019-01-10T06:10:52.149Z,5.03
2019-01-10T06:13:21.652Z,5.08
2019-01-10T06:15:51.157Z,5.09
2019-01-10T06:18:20.700Z,5.09
2019-01-10T06:20:50.193Z,5.06
2019-01-10T06:23:19.698Z,5.08
2019-01-10T06:25:49.214Z,5.11
2019-01-10T06:28:19.697Z,5.16
2019-01-10T06:30:49.204Z,5.21
2019-01-10T06:33:18.699Z,5.26
2019-01-10T06:35:48.180Z,5.20
2019-01-10T06:38:17.677Z,5.17
2019-01-10T06:40:47.262Z,5.20
2019-01-10T06:43:16.713Z,5.29
2019-01-10T06:45:46.271Z,5.30
2019-01-10T06:48:17.411Z,5.36
2019-01-10T06:50:46.913Z,5.38
2019-01-10T06:53:16.388Z,5.40
2019-01-10T06:55:46.080Z,5.33
2019-01-10T06:58:16.706Z,5.38
2019-01-10T07:00:46.204Z,5.38
2019-01-10T07:03:15.696Z,5.39
2019-01-10T07:05:45.188Z,5.44
2019-01-10T07:08:15.925Z,5.29
2019-01-10T07:10:45.352Z,5.28
2019-01-10T07:13:14.840Z,5.31
2019-01-10T07:15:44.328Z,5.35
2019-01-10T07:18:13.803Z,5.34
2019-01-10T07:20:43.284Z,5.40
2019-01-10T07:23:12.768Z,5.44
2019-01-10T07:25:42.335Z,5.45
2019-01-10T07:28:30.878Z,5.47
2019-01-10T07:31:01.152Z,5.44
2019-01-10T07:33:32.178Z,5.45
2019-01-10T07:36:01.950Z,5.45
2019-01-10T07:38:31.424Z,5.42
2019-01-10T07:41:00.910Z,5.42
2019-01-10T07:43:30.391Z,5.47
2019-01-10T07:46:05.033Z,5.46
2019-01-10T07:48:34.542Z,5.50
2019-01-10T07:51:04.107Z,5.53
2019-01-10T07:53:33.662Z,5.49
2019-01-10T07:56:03.160Z,5.38
2019-01-10T07:58:32.633Z,5.46
2019-01-10T08:01:02.195Z,5.41
2019-01-10T08:03:31.675Z,5.50
2019-01-10T08:06:01.163Z,5.50
2019-01-10T08:08:30.638Z,5.51
2019-01-10T08:11:00.122Z,5.47
2019-01-10T08:13:29.586Z,5.53
2019-01-10T08:15:59.144Z,5.45
2019-01-10T08:18:28.727Z,5.46
2019-01-10T08:20:58.215Z,5.41
2019-01-10T08:23:27.693Z,5.37
2019-01-10T08:25:57.177Z,5.37
2019-01-10T08:28:26.747Z,5.36
2019-01-10T08:30:56.236Z,5.39
2019-01-10T08:33:25.741Z,5.31
2019-01-10T08:35:56.054Z,5.28
2019-01-10T08:38:25.544Z,5.37
2019-01-10T08:40:55.032Z,5.39
2019-01-10T08:43:24.539Z,5.39
2019-01-10T08:45:54.053Z,5.44
2019-01-10T08:48:23.564Z,5.45
2019-01-10T08:50:53.031Z,5.45
2019-01-10T08:53:22.645Z,5.40
2019-01-10T08:55:52.147Z,5.43
2019-01-10T08:58:21.658Z,5.44
2019-01-10T09:00:51.167Z,5.40
2019-01-10T09:03:20.665Z,5.44
2019-01-10T09:05:50.140Z,5.44
2019-01-10T09:08:19.622Z,5.51
2019-01-10T09:10:49.907Z,5.50
2019-01-10T09:13:19.398Z,5.46
2019-01-10T09:15:48.914Z,5.49
2019-01-10T09:18:18.423Z,5.44
2019-01-10T09:20:47.914Z,5.45
2019-01-10T09:23:17.424Z,5.52
2019-01-10T09:25:47.019Z,5.59
2019-01-10T09:28:16.560Z,5.65
2019-01-10T09:30:46.062Z,5.54
2019-01-10T09:33:15.580Z,5.51
2019-01-10T09:35:45.089Z,5.55
2019-01-10T09:38:14.602Z,5.61
2019-01-10T09:40:44.089Z,5.68
2019-01-10T09:43:13.590Z,5.74
2019-01-10T09:45:43.670Z,5.79
2019-01-10T09:48:13.180Z,5.80
2019-01-10T09:50:42.741Z,5.82
2019-01-10T09:53:12.269Z,6.17
2019-01-10T09:55:41.778Z,6.23
2019-01-10T09:58:11.257Z,6.17
2019-01-10T10:00:40.789Z,6.13
2019-01-10T10:03:10.319Z,6.12
2019-01-10T10:05:39.812Z,6.13
2019-01-10T10:08:09.369Z,6.13
2019-01-10T10:10:38.846Z,6.06
2019-01-10T10:13:08.356Z,6.02
2019-01-10T10:15:37.869Z,5.92
2019-01-10T10:18:07.374Z,5.96
2019-01-10T10:20:36.941Z,6.01
2019-01-10T10:23:06.415Z,5.93
2019-01-10T10:25:35.915Z,6.01
2019-01-10T10:28:05.467Z,6.03
2019-01-10T10:30:35.024Z,6.09
2019-01-10T10:33:04.592Z,6.09
2019-01-10T10:35:34.071Z,6.01
2019-01-10T10:38:04.628Z,5.96
2019-01-10T10:40:34.184Z,5.97
2019-01-10T10:43:04.075Z,5.96
2019-01-10T10:45:33.577Z,5.84
2019-01-10T10:48:03.104Z,5.91
2019-01-10T10:50:32.659Z,5.88
2019-01-10T10:53:04.927Z,5.74
2019-01-10T10:55:34.545Z,5.75
2019-01-10T10:58:04.178Z,5.90
2019-01-10T11:00:33.691Z,5.89
2019-01-10T11:03:03.187Z,6.00
2019-01-10T11:05:32.756Z,5.90
2019-01-10T11:08:02.235Z,5.84
2019-01-10T11:10:31.726Z,5.88
2019-01-10T11:13:01.209Z,5.88
2019-01-10T11:15:30.757Z,6.03
2019-01-10T11:18:00.254Z,6.04
2019-01-10T11:20:29.746Z,6.05
2019-01-10T11:22:59.294Z,6.13
2019-01-10T11:25:30.005Z,6.25
2019-01-10T11:27:59.733Z,6.28
2019-01-10T11:30:29.296Z,6.33
2019-01-10T11:32:58.773Z,6.44
2019-01-10T11:35:28.265Z,6.38
2019-01-10T11:37:58.850Z,6.40
2019-01-10T11:40:28.354Z,6.43
2019-01-10T11:42:57.846Z,6.51
2019-01-10T11:45:28.153Z,6.42
2019-01-10T11:47:57.767Z,6.54
2019-01-10T11:50:27.258Z,6.61
2019-01-10T11:52:56.728Z,6.70
2019-01-10T11:55:26.243Z,6.66
2019-01-10T11:57:55.738Z,6.71
2019-01-10T12:00:30.343Z,6.70
2019-01-10T12:03:05.666Z,6.68
2019-01-10T12:05:36.505Z,6.69
2019-01-10T12:08:06.077Z,6.75
2019-01-10T12:10:35.669Z,6.72
2019-01-10T12:13:05.680Z,6.75
2019-01-10T12:15:35.194Z,6.62
2019-01-10T12:18:04.949Z,6.77
2019-01-10T12:20:34.521Z,6.89
2019-01-10T12:23:04.193Z,6.93
2019-01-10T12:25:33.775Z,6.95
2019-01-10T12:28:03.360Z,7.26
2019-01-10T12:30:32.853Z,7.26
2019-01-10T12:33:02.341Z,7.30
2019-01-10T12:35:31.838Z,7.19
2019-01-10T12:38:01.322Z,7.09
2019-01-10T12:40:30.841Z,7.09
2019-01-10T12:43:01.256Z,7.10
2019-01-10T12:45:30.766Z,7.03
2019-01-10T12:48:01.657Z,7.04
2019-01-10T12:50:32.823Z,6.94
2019-01-10T12:53:06.387Z,7.01
2019-01-10T12:55:35.921Z,6.91
2019-01-10T12:58:05.956Z,6.99
2019-01-10T13:00:36.721Z,6.84
2019-01-10T13:03:06.545Z,6.81
2019-01-10T13:05:36.047Z,6.81
2019-01-10T13:08:05.598Z,6.94
2019-01-10T13:10:35.088Z,6.87
2019-01-10T13:13:04.654Z,6.86
2019-01-10T13:15:34.137Z,6.88
2019-01-10T13:18:03.634Z,6.86
2019-01-10T13:20:33.712Z,6.89
2019-01-10T13:23:03.199Z,6.93
2019-01-10T13:25:32.687Z,6.92
2019-01-10T13:28:02.186Z,6.96
2019-01-10T13:30:31.681Z,6.98
2019-01-10T13:33:01.188Z,6.99
2019-01-10T13:35:31.651Z,7.04
2019-01-10T13:38:01.151Z,7.07
2019-01-10T13:40:30.649Z,7.08
2019-01-10T13:43:00.150Z,7.05
2019-01-10T13:45:29.706Z,7.03
2019-01-10T13:47:59.571Z,7.07
2019-01-10T13:50:30.360Z,7.10
2019-01-10T13:53:00.003Z,7.07
2019-01-10T13:55:29.573Z,7.08
2019-01-10T13:57:59.258Z,7.07
2019-01-10T14:00:35.706Z,6.94
2019-01-10T14:03:04.148Z,6.98
2019-01-10T14:05:34.591Z,7.05
2019-01-10T14:08:04.278Z,6.99
2019-01-10T14:10:33.753Z,6.90
2019-01-10T14:13:03.241Z,6.97
2019-01-10T14:15:34.422Z,6.95
2019-01-10T14:18:04.633Z,6.91
2019-01-10T14:20:34.270Z,6.91
2019-01-10T14:23:04.081Z,7.30
2019-01-10T14:25:33.642Z,7.22
2019-01-10T14:28:03.152Z,7.28
2019-01-10T14:30:40.950Z,7.37
2019-01-10T14:33:14.416Z,7.36
2019-01-10T14:35:44.074Z,7.21
2019-01-10T14:38:13.874Z,7.12
2019-01-10T14:40:43.354Z,7.30
2019-01-10T14:43:13.010Z,7.02
2019-01-10T14:45:44.471Z,7.30
2019-01-10T14:48:13.969Z,7.24
2019-01-10T14:50:43.471Z,7.19
2019-01-10T14:53:13.036Z,7.10
2019-01-10T14:55:42.610Z,6.91
2019-01-10T14:58:12.277Z,6.86
2019-01-10T15:00:41.758Z,6.86
2019-01-10T15:03:11.267Z,6.81
2019-01-10T15:05:40.745Z,6.85
2019-01-10T15:08:10.236Z,6.94
2019-01-10T15:10:39.723Z,7.01
2019-01-10T15:13:09.250Z,6.98
2019-01-10T15:15:38.741Z,7.06
2019-01-10T15:18:08.321Z,7.08
2019-01-10T15:20:37.938Z,7.07
2019-01-10T15:23:07.717Z,7.06
2019-01-10T15:25:37.270Z,7.03
2019-01-10T15:28:06.868Z,7.10
2019-01-10T15:30:36.477Z,7.15
2019-01-10T15:33:05.955Z,7.06
2019-01-10T15:35:35.458Z,7.00
2019-01-10T15:38:05.165Z,7.04
2019-01-10T15:40:34.836Z,7.04
2019-01-10T15:43:06.358Z,6.97
2019-01-10T15:45:35.856Z,6.96
2019-01-10T15:48:05.815Z,7.01
2019-01-10T15:50:35.415Z,6.94
2019-01-10T15:53:05.073Z,6.95
2019-01-10T15:55:34.734Z,6.93
2019-01-10T15:58:04.281Z,6.97
2019-01-10T16:00:33.793Z,6.97
2019-01-10T16:03:03.277Z,6.92
2019-01-10T16:05:32.781Z,6.83
2019-01-10T16:08:02.333Z,6.84
2019-01-10T16:10:31.874Z,6.82
2019-01-10T16:13:01.441Z,6.80
2019-01-10T16:15:30.961Z,6.71
2019-01-10T16:18:00.464Z,6.65
2019-01-10T16:20:29.959Z,6.64
2019-01-10T16:22:59.470Z,6.60
2019-01-10T16:25:28.977Z,6.59
2019-01-10T16:27:58.485Z,6.55
2019-01-10T16:30:31.055Z,6.61
2019-01-10T16:33:00.558Z,6.61
2019-01-10T16:35:30.128Z,6.62
2019-01-10T16:37:59.634Z,6.58
2019-01-10T16:40:29.435Z,6.53
2019-01-10T16:42:58.930Z,6.18
2019-01-10T16:45:34.328Z,6.51
2019-01-10T16:48:03.973Z,6.53
2019-01-10T16:50:34.442Z,6.46
2019-01-10T16:53:03.997Z,6.49
2019-01-10T16:55:34.141Z,6.45
2019-01-10T16:58:03.959Z,6.40
2019-01-10T17:00:34.410Z,6.39
2019-01-10T17:03:04.109Z,6.37
2019-01-10T17:05:33.848Z,6.32
2019-01-10T17:08:03.414Z,6.38
2019-01-10T17:10:33.003Z,6.40
2019-01-10T17:13:02.491Z,6.49
2019-01-10T17:15:31.985Z,6.57
2019-01-10T17:18:02.063Z,6.61
2019-01-10T17:20:31.730Z,6.65
2019-01-10T17:23:01.321Z,6.70
2019-01-10T17:25:30.817Z,6.71
2019-01-10T17:28:00.313Z,6.83
2019-01-10T17:30:30.850Z,6.83
2019-01-10T17:33:01.279Z,6.80
2019-01-10T17:35:32.950Z,6.72
2019-01-10T17:38:03.157Z,6.70
2019-01-10T17:40:32.735Z,6.84
2019-01-10T17:43:02.962Z,6.91
2019-01-10T17:45:34.411Z,6.84
2019-01-10T17:48:06.141Z,6.94
2019-01-10T17:50:35.659Z,6.98
2019-01-10T17:53:05.227Z,7.00
2019-01-10T17:55:34.741Z,6.96
2019-01-10T17:58:04.891Z,6.97
2019-01-10T18:00:34.390Z,6.93
2019-01-10T18:03:04.289Z,6.93
2019-01-10T18:05:33.833Z,6.83
2019-01-10T18:08:03.320Z,6.73
2019-01-10T18:10:32.799Z,6.70
2019-01-10T18:13:02.326Z,6.81
2019-01-10T18:15:31.907Z,6.81
2019-01-10T18:18:01.432Z,6.85
2019-01-10T18:20:36.409Z,6.84
2019-01-10T18:23:06.143Z,6.77
2019-01-10T18:25:35.639Z,6.79
2019-01-10T18:28:05.422Z,6.78
2019-01-10T18:30:35.864Z,6.76
2019-01-10T18:33:05.509Z,6.77
2019-01-10T18:35:35.347Z,6.86
2019-01-10T18:38:04.864Z,6.79
2019-01-10T18:40:34.436Z,6.74
2019-01-10T18:43:04.023Z,6.70
2019-01-10T18:45:34.299Z,6.62
2019-01-10T18:48:03.967Z,6.66
2019-01-10T18:50:33.530Z,6.69
2019-01-10T18:53:03.066Z,6.70
2019-01-10T18:55:32.560Z,6.75
2019-01-10T18:58:02.070Z,6.63
2019-01-10T19:00:32.118Z,6.61
2019-01-10T19:03:01.936Z,6.86
2019-01-10T19:05:31.813Z,7.30
2019-01-10T19:08:01.413Z,7.81
2019-01-10T19:10:30.973Z,8.23
2019-01-10T19:13:00.529Z,8.05
2019-01-10T19:15:30.026Z,7.80
2019-01-10T19:18:03.345Z,7.56
2019-01-10T19:20:30.788Z,7.36
2019-01-10T19:23:01.685Z,7.28
2019-01-10T19:25:31.462Z,7.09
2019-01-10T19:28:00.976Z,7.02
2019-01-10T19:30:32.690Z,6.92
2019-01-10T19:33:02.192Z,6.87
2019-01-10T19:35:32.372Z,6.81
2019-01-10T19:38:01.847Z,6.53
2019-01-10T19:40:31.414Z,6.79
2019-01-10T19:43:00.925Z,6.85
2019-01-10T19:45:30.419Z,6.79
2019-01-10T19:48:00.064Z,6.72
2019-01-10T19:50:29.548Z,6.74
2019-01-10T19:52:59.121Z,6.72
2019-01-10T19:55:28.799Z,6.66
2019-01-10T19:57:58.318Z,6.67
2019-01-10T20:00:30.552Z,6.71
2019-01-10T20:03:01.115Z,6.74
2019-01-10T20:05:30.624Z,7.07
2019-01-10T20:08:00.462Z,7.17
2019-01-10T20:10:30.002Z,7.31
2019-01-10T20:12:59.499Z,7.26
2019-01-10T20:15:29.102Z,7.13
2019-01-10T20:17:58.969Z,7.01
2019-01-10T20:20:34.037Z,6.98
2019-01-10T20:23:04.505Z,6.91
2019-01-10T20:25:34.689Z,6.76
2019-01-10T20:28:04.696Z,6.76
2019-01-10T20:30:34.261Z,6.72
2019-01-10T20:33:03.839Z,6.61
2019-01-10T20:35:33.342Z,6.52
2019-01-10T20:38:02.916Z,6.58
2019-01-10T20:40:32.407Z,6.53
2019-01-10T20:43:02.009Z,6.48
2019-01-10T20:45:31.522Z,6.45
2019-01-10T20:48:01.097Z,6.38
2019-01-10T20:50:30.710Z,6.25
2019-01-10T20:53:00.222Z,6.22
2019-01-10T20:55:29.748Z,6.15
2019-01-10T20:57:59.273Z,6.25
2019-01-10T21:00:29.726Z,6.24
2019-01-10T21:02:59.247Z,6.29
2019-01-10T21:05:28.747Z,6.18
2019-01-10T21:07:58.257Z,6.18
2019-01-10T21:10:28.234Z,6.07
2019-01-10T21:12:57.737Z,5.84
2019-01-10T21:15:29.809Z,5.71
2019-01-10T21:17:59.301Z,5.66
2019-01-10T21:20:28.788Z,5.63
2019-01-10T21:22:59.366Z,5.66
2019-01-10T21:25:29.117Z,5.63
2019-01-10T21:27:59.572Z,5.50
2019-01-10T21:30:29.072Z,5.41
2019-01-10T21:32:58.582Z,5.30
2019-01-10T21:35:28.071Z,5.36
2019-01-10T21:37:57.577Z,5.41
2019-01-10T21:40:28.477Z,5.44
2019-01-10T21:42:57.997Z,5.39
2019-01-10T21:45:27.569Z,5.44
2019-01-10T21:47:57.135Z,5.35
2019-01-10T21:50:27.457Z,5.45
2019-01-10T21:52:56.948Z,5.81
2019-01-10T21:55:26.737Z,5.79
2019-01-10T21:57:57.903Z,5.61
2019-01-10T22:00:29.609Z,5.57
2019-01-10T22:03:00.222Z,5.40
2019-01-10T22:05:29.878Z,5.27
2019-01-10T22:07:59.387Z,5.37
2019-01-10T22:10:29.168Z,5.43
2019-01-10T22:13:00.536Z,5.49
2019-01-10T22:15:30.105Z,5.59
2019-01-10T22:17:59.651Z,5.63
2019-01-10T22:20:29.223Z,5.50
2019-01-10T22:22:58.699Z,5.37
2019-01-10T22:25:28.191Z,5.31
2019-01-10T22:27:57.977Z,5.31
2019-01-10T22:30:28.139Z,5.20
2019-01-10T22:32:57.719Z,5.25
2019-01-10T22:35:27.284Z,5.29
2019-01-10T22:37:56.830Z,5.26
2019-01-10T22:40:26.326Z,5.28
2019-01-10T22:42:55.905Z,5.30
2019-01-10T22:45:25.488Z,5.27
2019-01-10T22:47:55.106Z,5.21
2019-01-10T22:50:24.788Z,5.26
2019-01-10T22:52:54.303Z,5.16
2019-01-10T22:55:23.796Z,5.04
2019-01-10T22:57:53.295Z,5.07
2019-01-10T23:01:12.389Z,5.14
2019-01-10T23:03:43.384Z,5.12
2019-01-10T23:06:13.033Z,5.17
2019-01-10T23:08:43.903Z,5.04
2019-01-10T23:11:21.727Z,5.10
2019-01-10T23:13:58.492Z,5.18
2019-01-10T23:16:28.360Z,5.14
2019-01-10T23:18:57.844Z,5.10
2019-01-10T23:21:28.388Z,5.15
2019-01-10T23:24:01.510Z,5.19
2019-01-10T23:26:31.073Z,5.07
2019-01-10T23:29:00.575Z,5.09
2019-01-10T23:31:31.063Z,5.18
2019-01-10T23:34:08.769Z,5.14
2019-01-10T23:36:38.410Z,5.18
2019-01-10T23:39:19.339Z,5.07
2019-01-10T23:41:49.732Z,5.02
2019-01-10T23:44:19.341Z,5.22
2019-01-10T23:46:48.960Z,5.06
2019-01-10T23:49:18.456Z,5.07
2019-01-10T23:51:48.674Z,5.06
2019-01-10T23:54:18.853Z,4.86
2019-01-10T23:56:48.376Z,4.91
2019-01-10T23:59:17.859Z,4.96
